createdAt,value
2018-05-04T00:01:42.477Z,1.40
2018-05-04T00:03:45.784Z,1.30
2018-05-04T00:05:49.094Z,1.27
2018-05-04T00:07:52.396Z,1.30
2018-05-04T00:09:55.680Z,1.30
2018-05-04T00:11:58.979Z,1.00
2018-05-04T00:14:02.284Z,1.33
2018-05-04T00:16:05.563Z,1.47
2018-05-04T00:18:08.886Z,1.23
2018-05-04T00:20:12.177Z,1.43
2018-05-04T00:22:15.493Z,1.20
2018-05-04T00:24:18.772Z,1.13
2018-05-04T00:26:21.820Z,1.07
2018-05-04T00:28:25.131Z,1.60
2018-05-04T00:30:28.414Z,1.17
2018-05-04T00:32:31.716Z,1.47
2018-05-04T00:34:35.009Z,1.50
2018-05-04T00:36:38.294Z,1.17
2018-05-04T00:38:41.605Z,1.20
2018-05-04T00:40:44.896Z,1.30
2018-05-04T00:42:48.215Z,1.27
2018-05-04T00:44:51.501Z,1.07
2018-05-04T00:46:54.793Z,1.37
2018-05-04T00:48:58.117Z,1.17
2018-05-04T00:51:01.400Z,1.30
2018-05-04T00:53:04.713Z,1.10
2018-05-04T00:55:08.001Z,1.27
2018-05-04T00:57:11.305Z,1.30
2018-05-04T00:59:14.618Z,1.43
2018-05-04T01:01:17.906Z,1.43
2018-05-04T01:03:21.232Z,1.13
2018-05-04T01:05:24.515Z,1.23
2018-05-04T01:07:27.820Z,0.93
2018-05-04T01:09:31.107Z,1.20
2018-05-04T01:11:34.396Z,1.10
2018-05-04T01:13:37.483Z,1.30
2018-05-04T01:15:40.765Z,1.20
2018-05-04T01:17:44.072Z,1.30
2018-05-04T01:19:47.377Z,1.33
2018-05-04T01:21:50.816Z,1.30
2018-05-04T01:23:54.137Z,1.07
2018-05-04T01:25:57.429Z,1.27
2018-05-04T01:28:01.539Z,1.20
2018-05-04T01:30:04.825Z,1.30
2018-05-04T01:32:08.115Z,1.27
2018-05-04T01:34:11.440Z,1.30
2018-05-04T01:36:14.741Z,1.70
2018-05-04T01:38:18.049Z,1.20
2018-05-04T01:40:21.350Z,1.20
2018-05-04T01:42:24.667Z,1.40
2018-05-04T01:44:27.983Z,1.40
2018-05-04T01:46:31.265Z,1.00
2018-05-04T01:48:34.580Z,0.90
2018-05-04T01:50:37.856Z,1.23
2018-05-04T01:52:41.170Z,1.37
2018-05-04T01:54:44.449Z,1.20
2018-05-04T01:56:47.733Z,1.20
2018-05-04T01:58:51.046Z,1.10
2018-05-04T02:00:54.340Z,1.33
2018-05-04T02:02:57.672Z,1.27
2018-05-04T02:05:00.737Z,0.90
2018-05-04T02:07:04.026Z,1.10
2018-05-04T02:09:07.340Z,0.90
2018-05-04T02:11:10.648Z,1.23
2018-05-04T02:13:13.960Z,1.30
2018-05-04T02:15:17.268Z,1.00
2018-05-04T02:17:20.564Z,1.13
2018-05-04T02:19:23.871Z,1.00
2018-05-04T02:21:27.160Z,1.27
2018-05-04T02:23:30.472Z,0.90
2018-05-04T02:25:33.764Z,1.23
2018-05-04T02:27:37.054Z,0.90
2018-05-04T02:29:40.372Z,1.20
2018-05-04T02:31:43.657Z,1.30
2018-05-04T02:33:46.969Z,1.20
2018-05-04T02:35:50.249Z,1.30
2018-05-04T02:37:53.564Z,1.40
2018-05-04T02:39:56.845Z,1.40
2018-05-04T02:42:00.132Z,1.33
2018-05-04T02:44:03.443Z,1.30
2018-05-04T02:46:06.736Z,1.30
2018-05-04T02:48:10.057Z,1.10
2018-05-04T02:50:13.349Z,0.93
2018-05-04T02:52:16.639Z,1.30
2018-05-04T02:54:19.949Z,1.20
2018-05-04T02:56:23.232Z,1.57
2018-05-04T02:58:26.540Z,1.20
2018-05-04T03:00:29.834Z,1.40
2018-05-04T03:02:33.123Z,1.20
2018-05-04T03:04:36.433Z,1.00
2018-05-04T03:06:39.724Z,0.90
2018-05-04T03:08:43.067Z,1.10
2018-05-04T03:10:46.355Z,1.00
2018-05-04T03:12:49.645Z,1.00
2018-05-04T03:14:52.959Z,0.80
2018-05-04T03:16:56.241Z,1.50
2018-05-04T03:18:59.549Z,1.07
2018-05-04T03:21:02.837Z,1.00
2018-05-04T03:23:05.878Z,1.27
2018-05-04T03:25:09.185Z,1.20
2018-05-04T03:27:12.475Z,1.07
2018-05-04T03:29:15.787Z,1.30
2018-05-04T03:31:19.083Z,1.10
2018-05-04T03:33:22.411Z,1.13
2018-05-04T03:35:25.874Z,1.37
2018-05-04T03:37:29.148Z,1.00
2018-05-04T03:39:32.453Z,1.40
2018-05-04T03:41:35.733Z,1.30
2018-05-04T03:43:39.045Z,1.00
2018-05-04T03:45:42.333Z,1.10
2018-05-04T03:47:45.615Z,1.00
2018-05-04T03:49:48.925Z,1.33
2018-05-04T03:51:52.204Z,1.10
2018-05-04T03:53:55.513Z,1.27
2018-05-04T03:55:58.796Z,1.10
2018-05-04T03:58:13.340Z,1.27
2018-05-04T04:00:27.828Z,1.13
2018-05-04T04:02:42.289Z,1.20
2018-05-04T04:04:45.595Z,0.97
2018-05-04T04:06:48.900Z,1.27
2018-05-04T04:08:52.204Z,1.30
2018-05-04T04:10:55.492Z,1.00
2018-05-04T04:12:58.788Z,1.40
2018-05-04T04:15:02.099Z,1.27
2018-05-04T04:17:05.149Z,1.07
2018-05-04T04:19:08.453Z,1.10
2018-05-04T04:21:11.740Z,1.17
2018-05-04T04:23:15.024Z,1.10
2018-05-04T04:25:18.327Z,1.10
2018-05-04T04:27:21.612Z,1.10
2018-05-04T04:29:24.917Z,1.17
2018-05-04T04:31:28.215Z,1.17
2018-05-04T04:33:31.692Z,1.30
2018-05-04T04:35:34.773Z,1.23
2018-05-04T04:37:38.056Z,0.90
2018-05-04T04:39:41.377Z,1.07
2018-05-04T04:41:44.671Z,0.97
2018-05-04T04:43:47.969Z,1.20
2018-05-04T04:45:51.301Z,0.93
2018-05-04T04:47:54.652Z,1.33
2018-05-04T04:49:58.267Z,2.80
2018-05-04T04:52:01.601Z,4.10
2018-05-04T04:54:05.175Z,4.03
2018-05-04T04:56:08.487Z,6.00
2018-05-04T04:58:11.794Z,15.70
2018-05-04T05:00:15.110Z,10.93
2018-05-04T05:02:18.409Z,9.73
2018-05-04T05:04:22.006Z,11.63
2018-05-04T05:08:31.443Z,8.53
2018-05-04T05:10:34.721Z,7.90
2018-05-04T05:12:38.039Z,8.37
2018-05-04T05:14:41.368Z,10.73
2018-05-04T05:16:44.650Z,8.33
2018-05-04T05:18:48.019Z,6.93
2018-05-04T05:20:51.335Z,11.03
2018-05-04T05:22:54.899Z,5.47
2018-05-04T05:24:58.209Z,10.23
2018-05-04T05:27:01.566Z,8.63
2018-05-04T05:29:05.029Z,8.23
2018-05-04T05:31:08.536Z,12.23
2018-05-04T05:33:11.834Z,8.77
2018-05-04T05:35:15.145Z,9.73
2018-05-04T05:37:18.442Z,8.40
2018-05-04T05:39:21.729Z,6.73
2018-05-04T05:41:25.392Z,5.57
2018-05-04T05:43:28.686Z,5.20
2018-05-04T05:45:32.159Z,18.07
2018-05-04T05:47:35.449Z,7.77
2018-05-04T05:49:40.121Z,7.97
2018-05-04T05:51:43.401Z,7.30
2018-05-04T05:53:46.893Z,8.17
2018-05-04T05:55:50.229Z,5.53
2018-05-04T05:57:53.773Z,6.77
2018-05-04T05:59:57.093Z,7.50
2018-05-04T06:02:00.810Z,7.77
2018-05-04T06:04:04.122Z,10.33
2018-05-04T06:06:07.619Z,8.13
2018-05-04T06:08:11.320Z,6.82
2018-05-04T06:10:14.607Z,6.93
2018-05-04T06:12:17.945Z,5.22
2018-05-04T06:14:21.270Z,4.87
2018-05-04T06:16:24.408Z,5.37
2018-05-04T06:18:27.743Z,6.83
2018-05-04T06:20:31.063Z,3.50
2018-05-04T06:22:34.465Z,7.80
2018-05-04T06:24:37.517Z,7.37
2018-05-04T06:26:40.824Z,5.63
2018-05-04T06:28:44.116Z,6.00
2018-05-04T06:30:47.469Z,6.10
2018-05-04T06:32:52.277Z,6.65
2018-05-04T06:34:55.699Z,5.72
2018-05-04T06:36:59.092Z,5.97
2018-05-04T06:39:02.319Z,7.00
2018-05-04T06:41:05.632Z,7.60
2018-05-04T06:43:08.914Z,4.43
2018-05-04T06:45:12.257Z,4.83
2018-05-04T06:47:15.687Z,6.83
2018-05-04T06:49:19.001Z,4.57
2018-05-04T06:51:22.442Z,8.13
2018-05-04T06:53:26.026Z,4.27
2018-05-04T06:55:29.393Z,3.97
2018-05-04T06:57:32.672Z,4.83
2018-05-04T06:59:36.001Z,5.40
2018-05-04T07:01:39.328Z,6.27
2018-05-04T07:03:42.818Z,3.40
2018-05-04T07:05:46.132Z,5.73
2018-05-04T07:07:49.481Z,6.13
2018-05-04T07:09:52.786Z,4.03
2018-05-04T07:11:56.094Z,4.53
2018-05-04T07:13:59.417Z,4.17
2018-05-04T07:16:02.892Z,5.53
2018-05-04T07:18:06.197Z,6.00
2018-05-04T07:20:09.522Z,4.70
2018-05-04T07:22:12.821Z,4.03
2018-05-04T07:24:16.114Z,5.40
2018-05-04T07:26:19.194Z,4.83
2018-05-04T07:28:22.512Z,5.00
2018-05-04T07:30:25.848Z,7.07
2018-05-04T07:32:29.145Z,6.00
2018-05-04T07:34:32.428Z,3.97
2018-05-04T07:36:35.756Z,8.03
2018-05-04T07:38:39.134Z,2.73
2018-05-04T07:40:42.482Z,4.97
2018-05-04T07:42:45.893Z,4.07
2018-05-04T07:44:49.196Z,3.87
2018-05-04T07:46:52.275Z,2.77
2018-05-04T07:48:55.548Z,4.07
2018-05-04T07:50:58.857Z,4.07
2018-05-04T07:53:02.441Z,5.37
2018-05-04T07:55:05.732Z,3.63
2018-05-04T07:57:09.044Z,3.97
2018-05-04T07:59:12.353Z,3.63
2018-05-04T08:01:15.737Z,5.80
2018-05-04T08:03:19.027Z,3.47
2018-05-04T08:05:22.351Z,6.30
2018-05-04T08:07:25.665Z,3.30
2018-05-04T08:09:28.742Z,3.73
2018-05-04T08:11:32.072Z,3.10
2018-05-04T08:13:35.684Z,4.07
2018-05-04T08:15:38.998Z,6.77
2018-05-04T08:17:42.313Z,5.27
2018-05-04T08:19:45.614Z,5.20
2018-05-04T08:21:48.924Z,5.13
2018-05-04T08:23:52.237Z,4.63
2018-05-04T08:25:55.555Z,4.00
2018-05-04T08:27:58.847Z,3.47
2018-05-04T08:30:02.160Z,3.10
2018-05-04T08:32:08.135Z,2.30
2018-05-04T08:34:13.760Z,4.93
2018-05-04T08:36:18.771Z,3.00
2018-05-04T08:38:23.251Z,3.05
2018-05-04T08:40:26.668Z,6.30
2018-05-04T08:42:30.000Z,3.93
2018-05-04T08:44:33.342Z,5.23
2018-05-04T08:46:36.752Z,2.27
2018-05-04T08:48:40.385Z,4.57
2018-05-04T08:50:43.697Z,3.63
2018-05-04T08:52:47.327Z,4.65
2018-05-04T08:54:50.637Z,3.57
2018-05-04T08:56:54.081Z,4.53
2018-05-04T08:58:57.360Z,3.50
2018-05-04T09:01:00.856Z,4.03
2018-05-04T09:03:04.169Z,2.93
2018-05-04T09:05:07.516Z,5.70
2018-05-04T09:07:11.001Z,3.40
2018-05-04T09:09:14.305Z,5.13
2018-05-04T09:11:17.657Z,3.43
2018-05-04T09:13:20.955Z,3.93
2018-05-04T09:15:24.323Z,5.70
2018-05-04T09:17:27.644Z,3.10
2018-05-04T09:19:30.944Z,3.47
2018-05-04T09:21:34.296Z,3.33
2018-05-04T09:23:37.594Z,3.90
2018-05-04T09:25:41.912Z,4.07
2018-05-04T09:27:45.308Z,4.03
2018-05-04T09:29:48.868Z,3.60
2018-05-04T09:31:52.570Z,5.73
2018-05-04T09:33:56.064Z,6.03
2018-05-04T09:35:59.376Z,3.67
2018-05-04T09:38:02.669Z,4.07
2018-05-04T09:40:06.071Z,3.87
2018-05-04T09:42:09.489Z,6.47
2018-05-04T09:44:12.785Z,7.30
2018-05-04T09:46:16.240Z,5.40
2018-05-04T09:48:19.513Z,6.33
2018-05-04T09:50:22.813Z,4.97
2018-05-04T09:52:26.143Z,3.13
2018-05-04T09:54:29.438Z,4.83
2018-05-04T09:56:32.778Z,8.07
2018-05-04T09:58:36.077Z,4.10
2018-05-04T10:00:39.372Z,8.00
2018-05-04T10:02:42.987Z,4.78
2018-05-04T10:04:46.276Z,5.50
2018-05-04T10:06:49.593Z,6.80
2018-05-04T10:08:52.895Z,3.47
2018-05-04T10:10:56.228Z,3.97
2018-05-04T10:12:59.611Z,6.23
2018-05-04T10:15:02.908Z,4.53
2018-05-04T10:17:06.220Z,7.97
2018-05-04T10:19:09.518Z,5.87
2018-05-04T10:21:12.584Z,2.77
2018-05-04T10:23:15.884Z,6.23
2018-05-04T10:25:19.456Z,6.50
2018-05-04T10:27:22.777Z,4.97
2018-05-04T10:29:26.350Z,5.30
2018-05-04T10:31:29.757Z,4.57
2018-05-04T10:33:33.159Z,6.83
2018-05-04T10:35:36.737Z,4.40
2018-05-04T10:37:40.061Z,7.93
2018-05-04T10:39:43.363Z,4.37
2018-05-04T10:41:46.672Z,5.60
2018-05-04T10:43:50.052Z,4.00
2018-05-04T10:45:53.388Z,6.23
2018-05-04T10:47:56.997Z,5.93
2018-05-04T10:50:00.361Z,4.63
2018-05-04T10:52:03.823Z,6.80
2018-05-04T10:54:07.121Z,5.63
2018-05-04T11:01:08.880Z,7.70
2018-05-04T11:03:12.236Z,8.80
2018-05-04T11:05:15.585Z,11.80
2018-05-04T11:07:19.164Z,10.77
2018-05-04T11:09:22.508Z,7.80
2018-05-04T11:11:25.864Z,10.80
2018-05-04T11:13:29.174Z,9.97
2018-05-04T11:15:32.625Z,7.97
2018-05-04T11:17:35.993Z,10.67
2018-05-04T11:19:39.399Z,8.80
2018-05-04T11:21:42.751Z,10.27
2018-05-04T11:23:46.208Z,8.67
2018-05-04T11:25:49.547Z,9.10
2018-05-04T11:27:53.018Z,8.00
2018-05-04T11:29:56.487Z,10.30
2018-05-04T11:31:59.863Z,12.57
2018-05-04T11:34:03.220Z,9.73
2018-05-04T11:36:06.354Z,8.40
2018-05-04T11:38:09.705Z,9.83
2018-05-04T11:40:13.057Z,9.57
2018-05-04T11:42:16.178Z,11.37
2018-05-04T11:44:19.535Z,9.97
2018-05-04T11:46:22.893Z,12.60
2018-05-04T11:48:26.212Z,8.20
2018-05-04T11:50:29.561Z,8.70
2018-05-04T11:52:32.948Z,9.20
2018-05-04T11:54:36.322Z,8.73
2018-05-04T11:56:39.700Z,9.17
2018-05-04T11:58:43.023Z,7.70
2018-05-04T12:00:46.357Z,8.13
2018-05-04T12:02:49.758Z,12.03
2018-05-04T12:04:53.170Z,9.77
2018-05-04T12:06:56.676Z,10.30
2018-05-04T12:09:00.029Z,10.27
2018-05-04T12:11:03.400Z,11.80
2018-05-04T12:13:06.551Z,10.07
2018-05-04T12:15:09.968Z,9.67
2018-05-04T12:17:13.361Z,8.97
2018-05-04T12:19:16.535Z,12.40
2018-05-04T12:21:19.912Z,10.47
2018-05-04T12:23:23.342Z,9.90
2018-05-04T12:25:26.697Z,9.87
2018-05-04T12:27:30.656Z,8.33
2018-05-04T12:29:34.013Z,10.20
2018-05-04T12:31:37.458Z,7.47
2018-05-04T12:33:40.791Z,8.07
2018-05-04T12:35:44.165Z,9.50
2018-05-04T12:37:47.703Z,9.50
2018-05-04T12:39:51.050Z,10.30
2018-05-04T12:41:54.497Z,9.63
2018-05-04T12:43:57.788Z,8.57
2018-05-04T12:46:01.219Z,7.70
2018-05-04T12:48:04.624Z,7.67
2018-05-04T12:50:08.016Z,5.50
2018-05-04T12:52:11.448Z,10.70
2018-05-04T12:54:14.802Z,9.17
2018-05-04T12:56:18.145Z,8.67
2018-05-04T12:58:21.778Z,9.57
2018-05-04T13:00:25.081Z,7.30
2018-05-04T13:02:28.446Z,13.90
2018-05-04T13:04:31.977Z,6.73
2018-05-04T13:06:35.469Z,8.17
2018-05-04T13:08:38.859Z,10.13
2018-05-04T13:10:42.211Z,10.63
2018-05-04T13:12:45.583Z,7.10
2018-05-04T13:14:48.939Z,8.77
2018-05-04T13:16:52.280Z,10.60
2018-05-04T13:18:55.617Z,7.63
2018-05-04T13:20:58.979Z,10.47
2018-05-04T13:23:02.362Z,8.73
2018-05-04T13:25:05.485Z,9.17
2018-05-04T13:27:08.849Z,14.13
2018-05-04T13:29:12.176Z,8.10
2018-05-04T13:31:15.501Z,6.77
2018-05-04T13:33:18.911Z,10.13
2018-05-04T13:35:22.221Z,7.87
2018-05-04T13:37:25.638Z,8.50
2018-05-04T13:39:29.001Z,10.00
2018-05-04T13:41:32.320Z,8.40
2018-05-04T13:43:38.041Z,10.27
2018-05-04T13:45:42.575Z,8.37
2018-05-04T13:47:46.278Z,13.30
2018-05-04T13:49:49.939Z,8.97
2018-05-04T13:51:53.284Z,8.00
2018-05-04T13:53:56.610Z,11.90
2018-05-04T13:55:59.926Z,16.27
2018-05-04T13:58:03.414Z,9.43
2018-05-04T14:00:06.750Z,9.13
2018-05-04T14:02:10.351Z,9.30
2018-05-04T14:04:13.842Z,11.67
2018-05-04T14:06:17.421Z,10.90
2018-05-04T14:08:23.189Z,9.77
2018-05-04T14:10:26.629Z,9.73
2018-05-04T14:12:29.973Z,8.37
2018-05-04T14:14:33.416Z,8.53
2018-05-04T14:16:37.632Z,11.17
2018-05-04T14:18:41.631Z,11.87
2018-05-04T14:20:45.360Z,8.47
2018-05-04T14:22:48.919Z,8.73
2018-05-04T14:24:52.956Z,8.63
2018-05-04T14:26:56.366Z,10.93
2018-05-04T14:28:59.681Z,7.53
2018-05-04T14:31:03.353Z,6.67
2018-05-04T14:33:07.067Z,7.47
2018-05-04T14:35:10.877Z,9.33
2018-05-04T14:37:14.676Z,9.73
2018-05-04T14:39:18.476Z,8.57
2018-05-04T14:41:22.314Z,10.03
2018-05-04T14:43:25.734Z,9.17
2018-05-04T14:45:29.035Z,7.13
2018-05-04T14:47:32.413Z,6.87
2018-05-04T14:49:35.743Z,6.60
2018-05-04T14:51:39.557Z,7.60
2018-05-04T14:53:43.356Z,5.30
2018-05-04T14:55:47.297Z,8.13
2018-05-04T14:57:51.463Z,12.00
2018-05-04T14:59:56.099Z,5.93
2018-05-04T15:02:00.303Z,7.53
2018-05-04T15:04:03.989Z,7.80
2018-05-04T15:06:07.710Z,9.47
2018-05-04T15:08:11.307Z,7.10
2018-05-04T15:10:15.099Z,11.87
2018-05-04T15:12:18.658Z,8.13
2018-05-04T15:14:22.169Z,10.87
2018-05-04T15:16:25.722Z,9.13
2018-05-04T15:18:29.285Z,10.23
2018-05-04T15:20:32.828Z,10.10
2018-05-04T15:22:36.413Z,10.07
2018-05-04T15:24:39.967Z,8.17
2018-05-04T15:26:43.968Z,8.93
2018-05-04T15:28:48.042Z,10.07
2018-05-04T15:30:52.084Z,11.90
2018-05-04T15:32:56.329Z,8.70
2018-05-04T15:35:00.533Z,9.07
2018-05-04T15:37:05.221Z,8.33
2018-05-04T15:39:09.359Z,7.87
2018-05-04T15:41:12.953Z,12.30
2018-05-04T15:43:17.833Z,5.57
2018-05-04T15:45:21.415Z,11.93
2018-05-04T15:47:25.714Z,11.83
2018-05-04T15:49:29.245Z,8.67
2018-05-04T15:51:38.810Z,13.23
2018-05-04T15:53:43.263Z,9.93
2018-05-04T15:55:47.582Z,8.77
2018-05-04T15:57:51.937Z,7.37
2018-05-04T15:59:56.048Z,11.43
2018-05-04T16:01:59.750Z,10.23
2018-05-04T16:04:03.322Z,9.10
2018-05-04T16:06:07.205Z,10.30
2018-05-04T16:08:11.719Z,9.57
2018-05-04T16:10:16.037Z,11.83
2018-05-04T16:12:20.284Z,9.10
2018-05-04T16:14:24.442Z,7.90
2018-05-04T16:16:28.413Z,8.77
2018-05-04T16:18:32.642Z,12.10
2018-05-04T16:20:36.624Z,8.20
2018-05-04T16:22:40.650Z,8.17
2018-05-04T16:24:44.749Z,6.77
2018-05-04T16:26:49.199Z,6.00
2018-05-04T16:28:53.417Z,7.93
2018-05-04T16:30:57.692Z,7.87
2018-05-04T16:33:01.706Z,9.33
2018-05-04T16:35:05.669Z,7.77
2018-05-04T16:37:09.680Z,8.33
2018-05-04T16:39:13.810Z,6.07
2018-05-04T16:41:17.934Z,8.33
2018-05-04T16:43:22.145Z,7.40
2018-05-04T16:45:26.465Z,7.77
2018-05-04T16:47:30.422Z,8.57
2018-05-04T16:49:33.997Z,8.93
2018-05-04T16:51:37.541Z,5.77
2018-05-04T16:53:41.089Z,8.67
2018-05-04T16:55:44.387Z,9.70
2018-05-04T16:57:47.893Z,8.60
2018-05-04T16:59:52.005Z,6.23
2018-05-04T17:01:56.127Z,9.90
2018-05-04T17:04:00.168Z,6.13
2018-05-04T17:06:04.138Z,6.73
2018-05-04T17:08:08.275Z,7.83
2018-05-04T17:10:12.445Z,8.10
2018-05-04T17:12:16.489Z,6.43
2018-05-04T17:14:19.809Z,6.87
2018-05-04T17:16:23.142Z,11.80
2018-05-04T17:18:26.479Z,5.37
2018-05-04T17:20:29.769Z,5.73
2018-05-04T17:22:33.993Z,8.13
2018-05-04T17:24:37.595Z,10.37
2018-05-04T17:26:41.943Z,12.07
2018-05-04T17:28:45.914Z,6.70
2018-05-04T17:30:49.964Z,6.73
2018-05-04T17:32:53.985Z,6.93
2018-05-04T17:34:57.986Z,5.63
2018-05-04T17:37:01.919Z,8.50
2018-05-04T17:39:05.196Z,5.30
2018-05-04T17:41:09.299Z,8.63
2018-05-04T17:43:13.389Z,8.63
2018-05-04T17:45:16.700Z,9.90
2018-05-04T17:47:20.281Z,4.27
2018-05-04T17:49:23.750Z,7.63
2018-05-04T17:51:27.287Z,6.93
2018-05-04T17:53:30.849Z,7.23
2018-05-04T17:55:34.783Z,7.60
2018-05-04T17:57:39.095Z,7.70
2018-05-04T17:59:43.232Z,5.97
2018-05-04T18:01:47.081Z,5.37
2018-05-04T18:03:51.136Z,7.70
2018-05-04T18:05:55.245Z,4.63
2018-05-04T18:07:59.445Z,6.87
2018-05-04T18:10:03.447Z,5.63
2018-05-04T18:12:07.511Z,6.53
2018-05-04T18:14:11.641Z,5.27
2018-05-04T18:16:15.601Z,4.20
2018-05-04T18:18:19.712Z,5.83
2018-05-04T18:20:23.619Z,5.43
2018-05-04T18:22:27.808Z,4.83
2018-05-04T18:24:31.830Z,8.00
2018-05-04T18:26:35.817Z,4.40
2018-05-04T18:28:40.057Z,6.70
2018-05-04T18:30:43.928Z,8.17
2018-05-04T18:32:48.006Z,4.93
2018-05-04T18:34:58.669Z,5.30
2018-05-04T18:37:02.617Z,4.97
2018-05-04T18:39:07.723Z,5.87
2018-05-04T18:41:11.725Z,5.33
2018-05-04T18:43:15.891Z,4.00
2018-05-04T18:45:20.115Z,8.63
2018-05-04T18:47:24.003Z,6.30
2018-05-04T18:49:27.987Z,6.97
2018-05-04T18:51:31.921Z,5.37
2018-05-04T18:53:35.961Z,6.60
2018-05-04T18:55:39.883Z,11.50
2018-05-04T18:57:43.886Z,5.77
2018-05-04T18:59:47.850Z,6.13
2018-05-04T19:01:51.862Z,6.40
2018-05-04T19:03:55.944Z,6.17
2018-05-04T19:05:59.876Z,6.43
2018-05-04T19:08:03.902Z,4.27
2018-05-04T19:10:08.568Z,10.33
2018-05-04T19:12:12.694Z,5.03
2018-05-04T19:14:16.246Z,8.43
2018-05-04T19:16:19.779Z,8.37
2018-05-04T19:18:23.349Z,4.10
2018-05-04T19:20:27.211Z,5.10
2018-05-04T19:22:31.256Z,5.73
2018-05-04T19:24:35.322Z,4.90
2018-05-04T19:26:39.324Z,6.20
2018-05-04T19:28:43.347Z,8.47
2018-05-04T19:30:47.343Z,5.37
2018-05-04T19:32:51.509Z,7.37
2018-05-04T19:34:55.542Z,7.90
2018-05-04T19:36:59.475Z,7.77
2018-05-04T19:39:03.483Z,6.13
2018-05-04T19:41:07.592Z,6.87
2018-05-04T19:43:11.801Z,7.50
2018-05-04T19:45:15.798Z,6.57
2018-05-04T19:47:19.805Z,5.90
2018-05-04T19:49:23.724Z,5.83
2018-05-04T19:51:27.814Z,5.43
2018-05-04T19:53:31.849Z,6.93
2018-05-04T19:55:35.727Z,5.63
2018-05-04T19:57:39.844Z,6.20
2018-05-04T19:59:43.937Z,6.87
2018-05-04T20:01:47.922Z,6.33
2018-05-04T20:03:52.189Z,7.47
2018-05-04T20:05:55.789Z,6.47
2018-05-04T20:07:59.383Z,7.63
2018-05-04T20:10:03.113Z,9.50
2018-05-04T20:12:06.643Z,5.73
2018-05-04T20:14:10.240Z,6.23
2018-05-04T20:16:13.795Z,5.23
2018-05-04T20:18:17.302Z,10.40
2018-05-04T20:20:20.848Z,8.00
2018-05-04T20:22:24.391Z,7.63
2018-05-04T20:24:27.908Z,6.33
2018-05-04T20:26:31.479Z,9.07
2018-05-04T20:28:35.976Z,5.17
2018-05-04T20:30:39.740Z,5.77
2018-05-04T20:32:43.254Z,6.77
2018-05-04T20:34:46.837Z,11.77
2018-05-04T20:36:50.732Z,9.87
2018-05-04T20:38:54.941Z,6.23
2018-05-04T20:40:58.866Z,7.23
2018-05-04T20:43:03.172Z,7.27
2018-05-04T20:45:07.322Z,8.17
2018-05-04T20:47:10.865Z,6.87
2018-05-04T20:49:14.534Z,6.87
2018-05-04T20:51:18.061Z,8.27
2018-05-04T20:53:21.604Z,6.70
2018-05-04T20:55:25.165Z,8.47
2018-05-04T20:57:29.082Z,6.70
2018-05-04T20:59:33.169Z,4.93
2018-05-04T21:01:37.280Z,10.57
2018-05-04T21:03:41.321Z,8.60
2018-05-04T21:05:45.497Z,7.33
2018-05-04T21:07:49.605Z,10.00
2018-05-04T21:09:53.764Z,7.20
2018-05-04T21:11:57.793Z,7.40
2018-05-04T21:14:01.989Z,6.17
2018-05-04T21:16:06.008Z,4.87
2018-05-04T21:18:10.087Z,8.17
2018-05-04T21:20:13.979Z,9.63
2018-05-04T21:22:17.560Z,10.23
2018-05-04T21:24:21.093Z,7.90
2018-05-04T21:26:24.658Z,9.43
2018-05-04T21:28:28.195Z,8.80
2018-05-04T21:30:31.753Z,9.70
2018-05-04T21:32:35.862Z,8.63
2018-05-04T21:34:40.178Z,9.90
2018-05-04T21:36:43.751Z,7.20
2018-05-04T21:38:47.368Z,21.67
2018-05-04T21:40:50.889Z,7.17
2018-05-04T21:42:54.181Z,8.63
2018-05-04T21:44:57.767Z,9.73
2018-05-04T21:47:01.337Z,8.57
2018-05-04T21:49:04.931Z,10.03
2018-05-04T21:51:08.718Z,11.13
2018-05-04T21:53:12.627Z,10.73
2018-05-04T21:55:16.404Z,10.07
2018-05-04T21:57:20.404Z,9.63
2018-05-04T21:59:24.647Z,12.17
2018-05-04T22:01:28.636Z,12.10
2018-05-04T22:03:32.559Z,9.93
2018-05-04T22:05:36.635Z,10.47
2018-05-04T22:07:40.681Z,9.47
2018-05-04T22:09:44.686Z,14.87
2018-05-04T22:11:48.249Z,9.60
2018-05-04T22:13:51.829Z,13.97
2018-05-04T22:15:55.393Z,8.80
2018-05-04T22:17:58.922Z,7.57
2018-05-04T22:20:02.508Z,7.17
2018-05-04T22:22:06.034Z,7.33
2018-05-04T22:24:09.593Z,8.57
2018-05-04T22:26:13.114Z,11.40
2018-05-04T22:28:17.117Z,7.67
2018-05-04T22:30:21.528Z,10.47
2018-05-04T22:32:25.646Z,8.80
2018-05-04T22:34:29.219Z,9.33
2018-05-04T22:36:32.761Z,8.87
2018-05-04T22:38:36.310Z,7.27
2018-05-04T22:40:39.882Z,7.90
2018-05-04T22:42:43.194Z,9.17
2018-05-04T22:44:47.275Z,12.23
2018-05-04T22:46:51.388Z,7.03
2018-05-04T22:48:55.654Z,9.57
2018-05-04T22:50:59.720Z,6.03
2018-05-04T22:53:03.701Z,7.87
2018-05-04T22:55:07.766Z,7.13
2018-05-04T22:57:11.736Z,9.23
2018-05-04T22:59:15.294Z,7.80
2018-05-04T23:01:19.558Z,8.50
2018-05-04T23:03:23.078Z,7.10
2018-05-04T23:05:26.670Z,7.63
2018-05-04T23:07:30.184Z,8.87
2018-05-04T23:09:34.151Z,13.10
2018-05-04T23:11:38.270Z,10.73
2018-05-04T23:13:42.275Z,6.63
2018-05-04T23:15:46.883Z,11.07
2018-05-04T23:17:51.044Z,8.50
2018-05-04T23:19:54.968Z,8.80
2018-05-04T23:21:59.120Z,14.93
2018-05-04T23:24:03.421Z,9.87
2018-05-04T23:26:07.609Z,6.85
2018-05-04T23:28:11.707Z,13.53
2018-05-04T23:30:16.280Z,8.35
2018-05-04T23:32:20.633Z,8.05
2018-05-04T23:34:25.026Z,8.98
2018-05-04T23:36:29.152Z,6.82
2018-05-04T23:38:33.607Z,10.80
2018-05-04T23:40:37.623Z,10.70
2018-05-04T23:42:41.608Z,8.67
2018-05-04T23:44:45.876Z,8.30
2018-05-04T23:46:50.206Z,6.93
2018-05-04T23:48:54.457Z,9.95
2018-05-04T23:50:58.017Z,7.30
2018-05-04T23:53:02.213Z,8.47
2018-05-04T23:55:05.812Z,5.87
2018-05-04T23:57:09.609Z,9.60
2018-05-04T23:59:13.192Z,13.05
